Time;durP1;ratioP1;P1;durP2;ratioP2;P2;SDS_P1;SDS_P2;PMS_P1;PMS_P2;Temp;Humidity;BMP_temperature;BMP_pressure;BME280_temperature;BME280_humidity;BME280_pressure;Samples;Min_cycle;Max_cycle;Signal;HPM_P1;HPM_P2
2021/05/26 00:00:36;;;;;;;8.33;7.50;;;;;21.50;100240.00;;;;2054970;28;20223;-51
2021/05/26 00:01:37;;;;;;;10.03;8.10;;;;;21.50;100241.00;;;;2054283;28;20228;-51
2021/05/26 00:02:37;;;;;;;7.93;7.17;;;;;21.50;100241.00;;;;2049891;28;20221;-51
2021/05/26 00:03:37;;;;;;;9.57;8.10;;;;;21.50;100237.00;;;;2054921;28;20296;-52
2021/05/26 00:04:38;;;;;;;8.20;6.87;;;;;21.50;100238.00;;;;2054926;28;20633;-54
2021/05/26 00:05:38;;;;;;;8.60;7.17;;;;;21.50;100239.00;;;;2054957;28;20227;-52
2021/05/26 00:06:39;;;;;;;8.60;7.70;;;;;21.50;100187.00;;;;2046439;29;20261;-52
2021/05/26 00:07:39;;;;;;;8.33;7.20;;;;;21.50;100239.00;;;;2046396;29;20228;-51
2021/05/26 00:08:40;;;;;;;7.77;7.07;;;;;21.50;100227.00;;;;2055007;28;20713;-51
2021/05/26 00:09:40;;;;;;;7.97;7.20;;;;;21.50;100233.00;;;;2052168;28;20285;-51
2021/05/26 00:10:40;;;;;;;7.33;6.60;;;;;21.50;100236.00;;;;2048332;28;20300;-51
2021/05/26 00:11:41;;;;;;;6.97;6.27;;;;;21.50;100233.00;;;;2047077;28;20206;-51
2021/05/26 00:12:41;;;;;;;8.00;6.43;;;;;21.50;100225.00;;;;2047356;28;20215;-51
2021/05/26 00:13:42;;;;;;;8.67;6.53;;;;;21.50;100218.00;;;;2047101;28;20223;-51
2021/05/26 00:14:42;;;;;;;8.13;6.17;;;;;21.50;100226.00;;;;2043241;29;20719;-52
2021/05/26 00:15:43;;;;;;;7.67;6.47;;;;;21.50;100233.00;;;;2046657;29;20308;-51
2021/05/26 00:16:43;;;;;;;6.50;5.87;;;;;21.50;100220.00;;;;2054922;28;21210;-51
2021/05/26 00:17:43;;;;;;;6.97;6.27;;;;;21.50;100221.00;;;;2055017;28;20693;-51
2021/05/26 00:18:44;;;;;;;6.77;6.13;;;;;21.50;100225.00;;;;2055031;28;20654;-51
2021/05/26 00:19:44;;;;;;;7.17;6.20;;;;;21.40;100225.00;;;;2054865;28;20213;-51
2021/05/26 00:20:46;;;;;;;6.10;5.50;;;;;21.40;100221.00;;;;2054834;28;20724;-51
2021/05/26 00:21:46;;;;;;;6.53;5.70;;;;;21.40;100216.00;;;;2054177;28;20239;-51
2021/05/26 00:22:46;;;;;;;6.57;5.87;;;;;21.50;100226.00;;;;2054653;28;20213;-51
2021/05/26 00:23:47;;;;;;;6.13;5.53;;;;;21.40;100217.00;;;;2055005;28;20242;-51
2021/05/26 00:24:47;;;;;;;7.40;5.83;;;;;21.40;100215.00;;;;2054935;28;20345;-51
2021/05/26 00:25:48;;;;;;;6.70;5.33;;;;;21.40;100233.00;;;;2054335;28;20229;-51
2021/05/26 00:26:48;;;;;;;6.63;5.80;;;;;21.40;100221.00;;;;2055042;28;20570;-51
2021/05/26 00:27:57;;;;;;;5.97;5.20;;;;;21.40;100223.00;;;;2054880;28;20570;-51
2021/05/26 00:28:58;;;;;;;6.35;5.75;;;;;21.40;100215.00;;;;2054999;28;20646;-51
2021/05/26 00:29:58;;;;;;;6.07;5.37;;;;;21.40;100218.00;;;;2054822;28;20223;-51
2021/05/26 00:31:00;;;;;;;5.47;4.97;;;;;21.40;100209.00;;;;2054198;28;20463;-51
2021/05/26 00:32:00;;;;;;;6.80;5.18;;;;;21.40;100219.00;;;;2054646;28;20749;-50
2021/05/26 00:33:01;;;;;;;5.77;5.27;;;;;21.40;100216.00;;;;2054893;28;20221;-51
2021/05/26 00:34:01;;;;;;;5.70;5.03;;;;;21.40;100215.00;;;;2053773;28;22450;-51
2021/05/26 00:35:01;;;;;;;6.13;5.53;;;;;21.40;100222.00;;;;2046853;28;20312;-51
2021/05/26 00:36:02;;;;;;;6.87;4.87;;;;;21.40;100215.00;;;;2038286;29;20234;-51
2021/05/26 00:37:04;;;;;;;5.97;5.30;;;;;21.40;100212.00;;;;2038259;29;20293;-51
2021/05/26 00:38:04;;;;;;;6.10;5.05;;;;;21.40;100212.00;;;;2046009;28;20640;-51
2021/05/26 00:39:05;;;;;;;6.00;5.23;;;;;21.40;100217.00;;;;2046356;28;20229;-51
2021/05/26 00:40:06;;;;;;;5.60;5.00;;;;;21.40;100217.00;;;;2049102;28;20225;-50
2021/05/26 00:41:06;;;;;;;5.00;4.50;;;;;21.40;100207.00;;;;2048855;28;20568;-51
2021/05/26 00:42:07;;;;;;;5.90;4.90;;;;;21.40;100209.00;;;;2049666;28;20216;-51
2021/05/26 00:43:07;;;;;;;4.87;4.33;;;;;21.40;100211.00;;;;2045080;28;20220;-51
2021/05/26 00:44:08;;;;;;;4.97;4.30;;;;;21.40;100209.00;;;;2046307;28;20232;-51
2021/05/26 00:45:08;;;;;;;5.10;4.60;;;;;21.40;100213.00;;;;2046294;28;20236;-51
2021/05/26 00:46:09;;;;;;;5.77;4.97;;;;;21.30;100196.00;;;;2046129;28;20209;-51
2021/05/26 00:47:09;;;;;;;5.30;4.77;;;;;21.40;100200.00;;;;2046528;28;20221;-51
2021/05/26 00:48:10;;;;;;;4.93;4.43;;;;;21.40;100206.00;;;;2046219;28;20313;-51
2021/05/26 00:49:10;;;;;;;6.17;4.30;;;;;21.40;100204.00;;;;2045728;28;20709;-51
2021/05/26 00:50:16;;;;;;;6.33;4.27;;;;;21.40;100205.00;;;;2045708;28;20249;-51
2021/05/26 00:51:16;;;;;;;4.60;3.92;;;;;21.30;100195.00;;;;2045330;28;20232;-51
2021/05/26 00:52:16;;;;;;;4.87;3.50;;;;;21.40;100197.00;;;;2046036;29;20217;-52
2021/05/26 00:53:17;;;;;;;4.33;3.93;;;;;21.30;100199.00;;;;2046261;28;20757;-52
2021/05/26 00:54:17;;;;;;;4.33;3.93;;;;;21.40;100197.00;;;;2037643;29;20726;-51
2021/05/26 00:55:19;;;;;;;4.77;4.30;;;;;21.40;100197.00;;;;2037942;29;20279;-51
2021/05/26 00:56:20;;;;;;;4.20;3.78;;;;;21.40;100195.00;;;;2046393;28;20720;-51
2021/05/26 00:57:20;;;;;;;5.27;3.80;;;;;21.40;100196.00;;;;2029853;29;20310;-51
2021/05/26 00:58:21;;;;;;;4.37;3.90;;;;;21.30;100191.00;;;;2022359;29;20214;-51
2021/05/26 00:59:21;;;;;;;4.90;4.20;;;;;21.30;100190.00;;;;2037837;29;20265;-52
2021/05/26 01:00:23;;;;;;;4.27;3.40;;;;;21.30;100189.00;;;;2046186;28;20456;-51
2021/05/26 01:01:23;;;;;;;5.40;4.30;;;;;21.30;100191.00;;;;2045514;28;20224;-51
2021/05/26 01:02:24;;;;;;;4.10;3.70;;;;;21.30;100189.00;;;;2045983;28;20213;-51
2021/05/26 01:03:25;;;;;;;4.90;4.00;;;;;21.30;100179.00;;;;2037405;29;20269;-51
2021/05/26 01:04:25;;;;;;;4.40;3.72;;;;;21.30;100190.00;;;;2037489;29;20225;-51
2021/05/26 01:05:26;;;;;;;4.03;3.63;;;;;21.30;100182.00;;;;2046122;28;20268;-51
2021/05/26 01:06:26;;;;;;;3.40;3.10;;;;;21.30;100182.00;;;;2046337;28;20646;-51
2021/05/26 01:07:27;;;;;;;3.97;3.63;;;;;21.30;100182.00;;;;2045166;29;21007;-51
2021/05/26 01:08:27;;;;;;;4.17;3.77;;;;;21.30;100180.00;;;;2045236;29;20223;-51
2021/05/26 01:09:28;;;;;;;4.30;3.60;;;;;21.30;100187.00;;;;2047478;28;20746;-51
2021/05/26 01:10:29;;;;;;;3.50;3.20;;;;;21.30;100193.00;;;;2049635;28;20695;-51
2021/05/26 01:11:29;;;;;;;5.20;3.65;;;;;21.30;100184.00;;;;2048358;28;20212;-51
2021/05/26 01:12:30;;;;;;;4.67;3.63;;;;;21.30;100173.00;;;;2048641;28;20682;-51
2021/05/26 01:13:31;;;;;;;4.80;3.37;;;;;21.30;100184.00;;;;2046419;28;20291;-51
2021/05/26 01:14:31;;;;;;;4.00;3.10;;;;;21.30;100186.00;;;;2046376;28;20208;-51
2021/05/26 01:15:32;;;;;;;4.43;3.20;;;;;21.30;100184.00;;;;2046697;28;20460;-51
2021/05/26 01:16:32;;;;;;;3.23;2.80;;;;;21.30;100182.00;;;;2046871;28;20244;-51
2021/05/26 01:17:34;;;;;;;3.87;3.23;;;;;21.30;100182.00;;;;2046692;28;20647;-51
2021/05/26 01:18:35;;;;;;;4.00;3.40;;;;;21.30;100186.00;;;;2046547;28;20216;-51
2021/05/26 01:19:36;;;;;;;3.80;3.00;;;;;21.30;100180.00;;;;2037926;29;20218;-50
2021/05/26 01:20:36;;;;;;;3.53;2.80;;;;;21.30;100183.00;;;;2038117;29;20300;-51
2021/05/26 01:21:37;;;;;;;3.30;2.93;;;;;21.30;100180.00;;;;2045769;28;20228;-51
2021/05/26 01:22:37;;;;;;;3.60;3.30;;;;;21.30;100185.00;;;;2046273;28;20700;-51
2021/05/26 01:23:40;;;;;;;3.63;2.97;;;;;21.30;100188.00;;;;2038229;29;20219;-51
2021/05/26 01:24:41;;;;;;;3.30;3.00;;;;;21.30;100185.00;;;;2038442;29;20238;-51
2021/05/26 01:25:41;;;;;;;3.13;2.83;;;;;21.20;100184.00;;;;2046365;28;20272;-51
2021/05/26 01:26:44;;;;;;;3.30;3.00;;;;;21.20;100174.00;;;;2037910;29;20252;-51
2021/05/26 01:27:45;;;;;;;3.13;2.72;;;;;21.30;100191.00;;;;2038237;29;20235;-51
2021/05/26 01:28:45;;;;;;;3.60;2.97;;;;;21.20;100176.00;;;;2037869;29;20602;-50
2021/05/26 01:29:46;;;;;;;3.87;2.53;;;;;21.20;100179.00;;;;2037982;29;20218;-51
2021/05/26 01:30:46;;;;;;;3.53;3.00;;;;;21.20;100176.00;;;;2046645;28;20219;-51
2021/05/26 01:31:46;;;;;;;3.50;3.20;;;;;21.20;100177.00;;;;2045905;28;20997;-50
2021/05/26 01:32:48;;;;;;;4.33;2.93;;;;;21.20;100171.00;;;;2046433;28;20283;-51
2021/05/26 01:33:48;;;;;;;2.95;2.70;;;;;21.20;100172.00;;;;2046502;28;20224;-51
2021/05/26 01:34:48;;;;;;;3.63;2.87;;;;;21.20;100179.00;;;;2045592;28;20216;-51
2021/05/26 01:35:49;;;;;;;3.30;2.70;;;;;21.20;100171.00;;;;2046587;28;20221;-51
2021/05/26 01:36:49;;;;;;;3.20;2.57;;;;;21.20;100174.00;;;;2046653;28;20224;-50
2021/05/26 01:37:50;;;;;;;2.90;2.33;;;;;21.20;100175.00;;;;2046343;28;20236;-51
2021/05/26 01:38:50;;;;;;;4.43;3.03;;;;;21.20;100167.00;;;;2046383;28;20247;-51
2021/05/26 01:39:51;;;;;;;2.90;2.60;;;;;21.20;100176.00;;;;2048565;28;20209;-51
2021/05/26 01:40:58;;;;;;;2.80;2.50;;;;;21.20;100172.00;;;;2046367;28;20205;-51
2021/05/26 01:41:59;;;;;;;3.38;3.08;;;;;21.20;100168.00;;;;2047309;28;20326;-51
2021/05/26 01:42:59;;;;;;;2.57;2.37;;;;;21.20;100166.00;;;;2046167;28;20213;-52
2021/05/26 01:44:00;;;;;;;2.80;2.37;;;;;21.20;100166.00;;;;2046644;28;20224;-51
2021/05/26 01:45:00;;;;;;;3.13;2.60;;;;;21.20;100166.00;;;;2045722;28;20280;-51
2021/05/26 01:46:01;;;;;;;2.93;2.57;;;;;21.20;100168.00;;;;2046339;28;20244;-51
2021/05/26 01:47:01;;;;;;;3.57;2.70;;;;;21.20;100168.00;;;;2046149;28;20233;-51
2021/05/26 01:48:02;;;;;;;2.30;2.10;;;;;21.20;100165.00;;;;2046401;28;20222;-51
2021/05/26 01:49:04;;;;;;;3.00;2.70;;;;;21.20;100172.00;;;;2050057;28;20698;-50
2021/05/26 01:50:06;;;;;;;3.63;2.28;;;;;21.20;100166.00;;;;2054425;28;20319;-51
2021/05/26 01:51:06;;;;;;;3.45;2.40;;;;;21.20;100168.00;;;;2053578;28;20278;-50
2021/05/26 01:52:06;;;;;;;4.90;2.57;;;;;21.20;100161.00;;;;2054679;28;20259;-51
2021/05/26 01:53:07;;;;;;;2.77;2.50;;;;;21.20;100163.00;;;;2054403;28;20219;-50
2021/05/26 01:54:07;;;;;;;2.97;2.57;;;;;21.20;100158.00;;;;2045933;29;20217;-50
2021/05/26 01:55:08;;;;;;;3.47;2.50;;;;;21.20;100165.00;;;;2045941;29;20690;-51
2021/05/26 01:56:19;;;;;;;3.00;2.57;;;;;21.20;100165.00;;;;2054425;28;20287;-51
2021/05/26 01:57:19;;;;;;;3.03;2.45;;;;;21.20;100161.00;;;;2054367;28;20459;-51
2021/05/26 01:58:20;;;;;;;3.80;2.40;;;;;21.20;100161.00;;;;2054526;28;20216;-51
2021/05/26 01:59:20;;;;;;;3.03;2.30;;;;;21.20;100155.00;;;;2054484;28;20213;-50
2021/05/26 02:00:20;;;;;;;2.67;2.10;;;;;21.20;100158.00;;;;2053666;28;20352;-51
2021/05/26 02:01:22;;;;;;;2.70;2.50;;;;;21.20;100153.00;;;;2053402;28;20226;-51
2021/05/26 02:02:23;;;;;;;2.90;2.60;;;;;21.20;100153.00;;;;2054449;28;20310;-51
2021/05/26 02:03:23;;;;;;;2.63;2.43;;;;;21.10;100149.00;;;;2054192;28;20257;-50
2021/05/26 02:04:23;;;;;;;4.47;2.30;;;;;21.10;100147.00;;;;2054408;28;20212;-51
2021/05/26 02:05:24;;;;;;;2.50;2.30;;;;;21.20;100153.00;;;;2045651;29;20765;-50
2021/05/26 02:06:25;;;;;;;2.67;2.43;;;;;21.20;100138.00;;;;2045864;29;20285;-51
2021/05/26 02:07:25;;;;;;;4.18;2.40;;;;;21.10;100144.00;;;;2054500;28;20212;-50
2021/05/26 02:08:26;;;;;;;3.03;2.37;;;;;21.10;100144.00;;;;2054083;28;20789;-53
2021/05/26 02:09:26;;;;;;;3.17;2.87;;;;;21.10;100139.00;;;;2054179;28;20224;-53
2021/05/26 02:13:04;;;;;;;3.22;2.22;;;;;21.10;100134.00;;;;2046666;28;20291;-51
2021/05/26 02:14:06;;;;;;;3.97;2.30;;;;;21.20;100139.00;;;;2050031;28;20220;-51
2021/05/26 02:15:11;;;;;;;3.45;2.35;;;;;21.10;100133.00;;;;2054250;28;20224;-51
2021/05/26 02:16:11;;;;;;;2.45;2.25;;;;;21.10;100132.00;;;;2053981;28;20216;-51
2021/05/26 02:17:12;;;;;;;3.00;2.00;;;;;21.10;100135.00;;;;2053155;28;20224;-51
2021/05/26 02:18:12;;;;;;;3.43;2.30;;;;;21.10;100128.00;;;;2045230;29;20345;-50
2021/05/26 02:19:12;;;;;;;2.30;2.10;;;;;21.10;100126.00;;;;2045792;29;20272;-50
2021/05/26 02:20:13;;;;;;;3.00;2.13;;;;;21.10;100126.00;;;;2054306;28;20223;-50
2021/05/26 02:21:13;;;;;;;2.80;2.07;;;;;21.10;100132.00;;;;2052351;28;20664;-51
2021/05/26 02:22:14;;;;;;;3.53;2.30;;;;;21.10;100129.00;;;;2054448;28;20290;-51
2021/05/26 02:23:14;;;;;;;2.30;2.10;;;;;21.10;100134.00;;;;2049934;28;20216;-51
2021/05/26 02:24:14;;;;;;;2.10;1.90;;;;;21.10;100134.00;;;;2046003;28;20213;-51
2021/05/26 02:25:15;;;;;;;2.70;2.03;;;;;21.10;100128.00;;;;2046136;28;20422;-51
2021/05/26 02:26:15;;;;;;;2.57;2.33;;;;;21.10;100129.00;;;;2036594;28;20220;-51
2021/05/26 02:27:15;;;;;;;2.67;2.13;;;;;21.10;100122.00;;;;2044772;28;20217;-51
2021/05/26 02:28:16;;;;;;;2.40;2.10;;;;;21.10;100129.00;;;;2046348;28;20217;-51
2021/05/26 02:29:16;;;;;;;3.03;2.20;;;;;21.10;100126.00;;;;2046179;28;20219;-51
2021/05/26 02:30:16;;;;;;;3.43;2.30;;;;;21.10;100129.00;;;;2046310;28;20213;-50
2021/05/26 02:31:17;;;;;;;3.07;2.00;;;;;21.10;100118.00;;;;2045724;28;20217;-50
2021/05/26 02:32:17;;;;;;;3.23;2.20;;;;;21.10;100126.00;;;;2046179;28;20214;-51
2021/05/26 02:33:18;;;;;;;2.40;2.00;;;;;21.10;100126.00;;;;2044664;28;20256;-51
2021/05/26 02:34:18;;;;;;;2.53;2.17;;;;;21.10;100124.00;;;;2046118;28;20217;-51
2021/05/26 02:35:18;;;;;;;3.13;2.20;;;;;21.10;100122.00;;;;2045616;28;20308;-51
2021/05/26 02:36:19;;;;;;;2.40;2.00;;;;;21.10;100121.00;;;;2046200;28;20224;-51
2021/05/26 02:37:19;;;;;;;2.37;1.93;;;;;21.10;100127.00;;;;2046503;28;22401;-51
2021/05/26 02:38:19;;;;;;;2.73;2.10;;;;;21.10;100119.00;;;;2046073;28;20702;-51
2021/05/26 02:39:20;;;;;;;3.37;2.00;;;;;21.10;100116.00;;;;2044839;28;20312;-51
2021/05/26 02:40:20;;;;;;;2.60;2.00;;;;;21.10;100123.00;;;;2051215;28;20231;-51
2021/05/26 02:41:21;;;;;;;3.30;2.00;;;;;21.10;100120.00;;;;2048006;28;20267;-51
2021/05/26 02:42:21;;;;;;;3.33;2.10;;;;;21.10;100109.00;;;;2049026;28;20558;-51
2021/05/26 02:43:21;;;;;;;3.53;2.00;;;;;21.10;100109.00;;;;2045767;28;20287;-51
2021/05/26 02:44:22;;;;;;;3.30;1.93;;;;;21.10;100117.00;;;;2046098;28;20320;-51
2021/05/26 02:45:22;;;;;;;3.23;2.13;;;;;21.10;100110.00;;;;2045994;28;20340;-50
2021/05/26 02:46:22;;;;;;;2.27;1.93;;;;;21.10;100113.00;;;;2045474;28;20224;-51
2021/05/26 02:47:23;;;;;;;2.43;2.00;;;;;21.10;100106.00;;;;2046252;28;20248;-51
2021/05/26 02:48:23;;;;;;;2.40;2.17;;;;;21.00;100108.00;;;;2046561;28;20248;-50
2021/05/26 02:49:24;;;;;;;2.23;2.03;;;;;21.10;100109.00;;;;2046248;28;20297;-51
2021/05/26 02:50:24;;;;;;;2.90;2.10;;;;;21.10;100107.00;;;;2046445;28;20221;-51
2021/05/26 02:51:25;;;;;;;2.40;2.20;;;;;21.10;100113.00;;;;2045275;28;20228;-50
2021/05/26 02:52:25;;;;;;;2.70;1.90;;;;;21.00;100111.00;;;;2046256;28;20217;-51
2021/05/26 02:53:25;;;;;;;2.77;1.97;;;;;21.10;100113.00;;;;2045616;28;20217;-51
2021/05/26 02:54:26;;;;;;;3.43;2.10;;;;;21.00;100109.00;;;;2045477;28;20216;-51
2021/05/26 02:55:26;;;;;;;2.27;1.90;;;;;21.10;100109.00;;;;2045924;28;20224;-51
2021/05/26 02:56:27;;;;;;;1.90;1.70;;;;;21.10;100106.00;;;;2045657;28;20391;-51
2021/05/26 02:57:27;;;;;;;3.00;1.80;;;;;21.10;100108.00;;;;2045845;28;20229;-51
2021/05/26 02:58:27;;;;;;;3.33;2.03;;;;;21.10;100106.00;;;;2045738;28;20220;-51
2021/05/26 02:59:28;;;;;;;1.83;1.50;;;;;21.00;100108.00;;;;2045721;28;20236;-50
2021/05/26 03:00:28;;;;;;;2.50;1.90;;;;;21.00;100105.00;;;;2037642;29;20221;-51
2021/05/26 03:01:29;;;;;;;2.53;1.90;;;;;21.00;100104.00;;;;2036015;29;20718;-51
2021/05/26 03:02:29;;;;;;;3.73;2.10;;;;;21.00;100101.00;;;;2045716;28;20216;-50
2021/05/26 03:03:30;;;;;;;3.00;1.97;;;;;21.00;100108.00;;;;2045770;28;20209;-51
2021/05/26 03:04:30;;;;;;;4.10;2.23;;;;;21.00;100106.00;;;;2045549;28;20220;-51
2021/05/26 03:05:30;;;;;;;3.13;1.70;;;;;21.00;100100.00;;;;2044971;28;20705;-51
2021/05/26 03:06:31;;;;;;;5.37;1.90;;;;;21.00;100106.00;;;;2045143;29;20586;-51
2021/05/26 03:07:32;;;;;;;2.88;1.90;;;;;21.00;100089.00;;;;2053237;28;20235;-51
2021/05/26 03:08:32;;;;;;;5.10;2.33;;;;;21.00;100102.00;;;;2045049;29;20216;-51
2021/05/26 03:09:32;;;;;;;3.10;2.03;;;;;21.00;100115.00;;;;2043197;29;20228;-51
2021/05/26 03:10:33;;;;;;;2.80;1.87;;;;;21.00;100107.00;;;;2047632;28;20248;-51
2021/05/26 03:11:33;;;;;;;2.70;1.87;;;;;21.00;100102.00;;;;2046437;28;20232;-51
2021/05/26 03:12:34;;;;;;;4.37;2.17;;;;;21.00;100100.00;;;;2046896;28;20308;-51
2021/05/26 03:13:34;;;;;;;2.50;1.87;;;;;21.00;100108.00;;;;2045637;28;20220;-51
2021/05/26 03:14:34;;;;;;;2.30;1.93;;;;;21.00;100109.00;;;;2045362;28;20213;-50
2021/05/26 03:15:35;;;;;;;2.80;2.10;;;;;21.00;100105.00;;;;2045523;28;20217;-51
2021/05/26 03:16:36;;;;;;;2.33;1.70;;;;;21.00;100102.00;;;;2037263;29;20218;-50
2021/05/26 03:17:36;;;;;;;1.98;1.70;;;;;21.00;100112.00;;;;2029479;29;20306;-52
2021/05/26 03:18:37;;;;;;;2.00;1.70;;;;;21.00;100105.00;;;;2037745;29;20226;-51
2021/05/26 03:19:37;;;;;;;3.73;2.30;;;;;21.00;100100.00;;;;2046024;28;20674;-51
2021/05/26 03:20:38;;;;;;;3.30;1.70;;;;;21.00;100104.00;;;;2046299;28;20213;-51
2021/05/26 03:21:39;;;;;;;3.60;2.23;;;;;21.00;100098.00;;;;2045326;28;20690;-51
2021/05/26 03:22:40;;;;;;;2.95;2.08;;;;;21.00;100104.00;;;;2045747;28;20221;-51
2021/05/26 03:23:41;;;;;;;2.70;1.67;;;;;21.00;100107.00;;;;2045302;28;20213;-51
2021/05/26 03:24:41;;;;;;;2.17;1.55;;;;;21.00;100094.00;;;;2046116;28;20224;-51
2021/05/26 03:25:42;;;;;;;3.27;1.73;;;;;21.00;100100.00;;;;2046504;28;20254;-52
2021/05/26 03:26:43;;;;;;;2.20;1.90;;;;;21.00;100098.00;;;;2047449;28;20231;-51
2021/05/26 03:27:44;;;;;;;2.60;1.73;;;;;21.00;100099.00;;;;2047223;28;20694;-51
2021/05/26 03:28:44;;;;;;;3.63;2.33;;;;;21.00;100101.00;;;;2047551;28;20220;-51
2021/05/26 03:29:44;;;;;;;3.23;1.80;;;;;21.00;100105.00;;;;2047422;28;20228;-51
2021/05/26 03:30:45;;;;;;;1.80;1.47;;;;;21.00;100106.00;;;;2047678;28;20224;-51
2021/05/26 03:31:46;;;;;;;2.67;2.17;;;;;21.00;100094.00;;;;2046709;28;20214;-51
2021/05/26 03:32:46;;;;;;;1.67;1.43;;;;;21.00;100095.00;;;;2038314;29;20222;-51
2021/05/26 03:33:47;;;;;;;4.07;1.97;;;;;21.00;100099.00;;;;2038283;29;20296;-51
2021/05/26 03:34:48;;;;;;;3.23;2.00;;;;;21.00;100104.00;;;;2038625;29;20321;-51
2021/05/26 03:35:48;;;;;;;3.60;1.90;;;;;21.00;100098.00;;;;2038448;29;20658;-53
2021/05/26 03:36:48;;;;;;;2.47;1.70;;;;;21.00;100089.00;;;;2047192;28;20271;-51
2021/05/26 03:37:49;;;;;;;3.23;1.63;;;;;21.00;100100.00;;;;2046677;28;20579;-50
2021/05/26 03:38:49;;;;;;;3.27;2.20;;;;;21.00;100100.00;;;;2046944;28;20229;-51
2021/05/26 03:39:50;;;;;;;2.97;2.00;;;;;21.00;100097.00;;;;2050448;28;20270;-51
2021/05/26 03:40:50;;;;;;;2.50;1.87;;;;;21.00;100103.00;;;;2047572;28;20227;-51
2021/05/26 03:41:50;;;;;;;3.20;1.80;;;;;21.00;100097.00;;;;2046238;28;20235;-51
2021/05/26 03:42:51;;;;;;;3.87;1.77;;;;;21.00;100094.00;;;;2046452;28;20223;-51
2021/05/26 03:43:51;;;;;;;2.20;2.00;;;;;21.00;100094.00;;;;2046643;28;20276;-51
2021/05/26 03:44:52;;;;;;;4.37;1.90;;;;;21.00;100093.00;;;;2046690;28;20908;-51
2021/05/26 03:45:52;;;;;;;2.70;1.98;;;;;21.00;100099.00;;;;2038518;29;20320;-51
2021/05/26 03:46:53;;;;;;;2.50;1.83;;;;;21.00;100087.00;;;;2038295;29;20227;-51
2021/05/26 03:47:53;;;;;;;2.17;1.73;;;;;21.00;100099.00;;;;2046931;28;20228;-51
2021/05/26 03:48:54;;;;;;;2.63;1.80;;;;;21.00;100093.00;;;;2047284;28;20228;-51
2021/05/26 03:49:54;;;;;;;3.47;1.70;;;;;21.00;100099.00;;;;2051643;28;20272;-51
2021/05/26 03:50:54;;;;;;;2.80;1.50;;;;;21.00;100090.00;;;;2055375;28;20328;-51
2021/05/26 03:51:55;;;;;;;3.37;1.87;;;;;21.00;100083.00;;;;2054592;28;20216;-50
2021/05/26 03:52:55;;;;;;;3.60;2.30;;;;;20.90;100090.00;;;;2052255;28;20227;-51
2021/05/26 03:53:56;;;;;;;3.77;2.40;;;;;20.90;100095.00;;;;2046134;29;20216;-51
2021/05/26 03:54:56;;;;;;;2.47;1.83;;;;;20.90;100092.00;;;;2033664;29;20225;-51
2021/05/26 03:55:56;;;;;;;4.13;1.90;;;;;20.90;100083.00;;;;2046732;29;20216;-51
2021/05/26 03:56:57;;;;;;;2.30;1.63;;;;;21.00;100091.00;;;;2055138;28;20224;-51
2021/05/26 03:57:57;;;;;;;3.60;2.27;;;;;20.90;100086.00;;;;2051325;28;20220;-51
2021/05/26 03:58:57;;;;;;;3.50;1.93;;;;;20.90;100085.00;;;;2046614;29;20217;-51
2021/05/26 03:59:58;;;;;;;2.63;1.73;;;;;21.00;100090.00;;;;2046879;29;20221;-51
2021/05/26 04:00:58;;;;;;;2.13;1.70;;;;;20.90;100093.00;;;;2055050;28;20826;-51
2021/05/26 04:01:58;;;;;;;2.00;1.47;;;;;20.90;100088.00;;;;2054845;28;20660;-51
2021/05/26 04:02:59;;;;;;;2.70;1.90;;;;;20.90;100087.00;;;;2054699;28;20216;-51
2021/05/26 04:03:59;;;;;;;2.33;1.53;;;;;20.90;100090.00;;;;2054827;28;20355;-51
2021/05/26 04:05:00;;;;;;;2.40;1.60;;;;;20.90;100088.00;;;;2044763;28;20220;-50
2021/05/26 04:06:00;;;;;;;1.70;1.43;;;;;20.90;100091.00;;;;2054566;28;20220;-51
2021/05/26 04:07:00;;;;;;;3.07;1.80;;;;;20.90;100087.00;;;;2055291;28;20215;-50
2021/05/26 04:08:01;;;;;;;2.03;1.83;;;;;20.90;100098.00;;;;2053362;28;20307;-51
2021/05/26 04:09:02;;;;;;;3.53;1.40;;;;;20.90;100091.00;;;;2050404;28;20964;-51
2021/05/26 04:10:03;;;;;;;3.83;1.92;;;;;20.90;100086.00;;;;2050163;28;20219;-51
2021/05/26 04:11:04;;;;;;;4.70;1.95;;;;;20.90;100084.00;;;;2049886;28;20224;-51
2021/05/26 04:12:05;;;;;;;1.83;1.63;;;;;20.90;100088.00;;;;2038946;29;20237;-51
2021/05/26 04:13:05;;;;;;;2.40;1.70;;;;;20.90;100085.00;;;;2043849;28;20208;-50
2021/05/26 04:14:06;;;;;;;2.27;1.50;;;;;20.90;100078.00;;;;2055271;28;20216;-51
2021/05/26 04:15:07;;;;;;;1.80;1.60;;;;;20.90;100084.00;;;;2055213;28;20220;-51
2021/05/26 04:16:07;;;;;;;4.70;1.90;;;;;20.90;100082.00;;;;2055119;28;20215;-51
2021/05/26 04:17:07;;;;;;;3.20;1.60;;;;;20.90;100083.00;;;;2055084;28;20448;-50
2021/05/26 04:18:08;;;;;;;2.03;1.67;;;;;20.90;100083.00;;;;2055274;28;20219;-51
2021/05/26 04:19:08;;;;;;;2.43;1.60;;;;;20.90;100079.00;;;;2054526;28;20244;-51
2021/05/26 04:20:10;;;;;;;2.93;1.90;;;;;20.90;100081.00;;;;2048435;28;20213;-51
2021/05/26 04:21:10;;;;;;;2.67;1.67;;;;;20.90;100079.00;;;;2046611;28;20275;-51
2021/05/26 04:22:10;;;;;;;2.50;1.40;;;;;20.90;100076.00;;;;2050686;28;20220;-51
2021/05/26 04:23:12;;;;;;;2.50;1.33;;;;;20.90;100083.00;;;;2046371;28;20236;-51
2021/05/26 04:24:12;;;;;;;6.43;2.20;;;;;20.90;100083.00;;;;2046760;28;20224;-50
2021/05/26 04:25:13;;;;;;;4.30;1.80;;;;;20.90;100083.00;;;;2049589;28;20277;-50
2021/05/26 04:26:13;;;;;;;2.43;1.60;;;;;20.90;100081.00;;;;2046101;29;20220;-51
2021/05/26 04:27:13;;;;;;;2.57;1.80;;;;;20.90;100079.00;;;;2045924;29;20228;-51
2021/05/26 04:28:14;;;;;;;3.10;2.13;;;;;20.90;100080.00;;;;2045998;28;20221;-51
2021/05/26 04:29:15;;;;;;;2.33;1.60;;;;;20.90;100083.00;;;;2046722;28;20237;-51
2021/05/26 04:30:15;;;;;;;1.60;1.48;;;;;20.90;100083.00;;;;2047133;28;20570;-51
2021/05/26 04:31:16;;;;;;;2.10;1.90;;;;;20.90;100078.00;;;;2046143;28;20308;-51
2021/05/26 04:32:16;;;;;;;2.40;1.50;;;;;20.90;100082.00;;;;2038282;29;20221;-51
2021/05/26 04:33:17;;;;;;;2.83;1.77;;;;;20.90;100093.00;;;;2035872;29;20265;-50
2021/05/26 04:34:17;;;;;;;2.87;1.50;;;;;20.90;100085.00;;;;2046720;28;20733;-50
2021/05/26 04:35:17;;;;;;;2.03;1.60;;;;;20.90;100082.00;;;;2046429;28;20217;-51
2021/05/26 04:36:18;;;;;;;2.30;1.50;;;;;20.90;100082.00;;;;2046520;28;20219;-51
2021/05/26 04:37:18;;;;;;;2.50;1.63;;;;;20.90;100075.00;;;;2045801;28;20682;-51
2021/05/26 04:38:18;;;;;;;2.63;1.70;;;;;20.90;100075.00;;;;2045907;28;20283;-51
2021/05/26 04:39:19;;;;;;;2.40;1.70;;;;;20.90;100079.00;;;;2046511;28;20663;-50
2021/05/26 04:40:19;;;;;;;1.90;1.23;;;;;20.90;100069.00;;;;2046672;28;20354;-53
2021/05/26 04:41:20;;;;;;;2.20;1.63;;;;;20.90;100068.00;;;;2045357;28;20225;-52
2021/05/26 04:42:20;;;;;;;3.70;1.80;;;;;20.90;100081.00;;;;2046485;28;20581;-52
2021/05/26 04:43:20;;;;;;;2.90;2.03;;;;;20.90;100081.00;;;;2046460;28;20213;-53
2021/05/26 04:44:21;;;;;;;2.00;1.67;;;;;20.90;100080.00;;;;2046627;28;20224;-52
2021/05/26 04:45:21;;;;;;;2.33;1.70;;;;;20.90;100081.00;;;;2046370;28;20256;-52
2021/05/26 04:46:22;;;;;;;2.80;1.70;;;;;20.90;100075.00;;;;2046754;28;20284;-51
2021/05/26 04:47:22;;;;;;;3.13;1.57;;;;;20.90;100076.00;;;;2043955;28;20232;-51
2021/05/26 04:48:23;;;;;;;2.60;1.67;;;;;20.90;100075.00;;;;2046813;28;20213;-51
2021/05/26 04:49:23;;;;;;;1.77;1.20;;;;;20.90;100076.00;;;;2046869;29;20220;-51
2021/05/26 04:50:24;;;;;;;1.93;1.40;;;;;20.90;100075.00;;;;2046996;28;20217;-51
2021/05/26 04:51:25;;;;;;;2.20;1.50;;;;;20.90;100074.00;;;;2037573;29;20330;-51
2021/05/26 04:52:25;;;;;;;1.70;1.30;;;;;20.90;100076.00;;;;2038414;29;20217;-51
2021/05/26 04:53:25;;;;;;;2.37;1.37;;;;;20.90;100064.00;;;;2046589;28;20279;-51
2021/05/26 04:54:26;;;;;;;2.00;1.57;;;;;20.90;100070.00;;;;2049367;28;20589;-51
2021/05/26 04:55:26;;;;;;;1.93;1.50;;;;;20.80;100068.00;;;;2048677;28;20216;-51
2021/05/26 04:56:27;;;;;;;2.40;1.47;;;;;20.90;100065.00;;;;2048527;28;20233;-51
2021/05/26 04:57:27;;;;;;;2.33;1.53;;;;;20.90;100064.00;;;;2046631;28;20311;-51
2021/05/26 04:58:27;;;;;;;3.57;1.60;;;;;20.80;100067.00;;;;2046975;28;20307;-51
2021/05/26 04:59:28;;;;;;;2.23;1.40;;;;;20.80;100061.00;;;;2046669;28;20639;-51
2021/05/26 05:00:28;;;;;;;1.47;1.37;;;;;20.80;100048.00;;;;2046757;28;20582;-50
2021/05/26 05:01:29;;;;;;;2.90;1.60;;;;;20.80;100062.00;;;;2045609;28;20262;-51
2021/05/26 05:02:29;;;;;;;1.87;1.60;;;;;20.90;100058.00;;;;2043816;28;20205;-51